Elsa — WDB7862 — position and weather

sailwx.info

Track history (hours):
 
Tides and Currents Weather Stations Pressure Air Temp Water Temp Dewpoint Dewpoint Depression Visibility Wind Speed Wind Dir Waves Ship Positions

Elsa

Owner: GP RESOURCES INC., TERMINAL ISLAND, CA. More information available from US FCC via Universal Licensing System and Coast Guard Vessel Documentation Center.

Last reported at 2016-Aug-24 23:33 UTC. Time now 2016-Aug-26 08:32 UTC.
Position N 33°44' W 118°16'.

Length 18 m.

Type: Tug. MMSI: 366949020.

Date/timePositionNaut miles runAvg speedWind from/ knotsBaromVisibWave heightAir tempDewpointWater temp
2016-Aug-24 23:33N 33°44' W 118°16'0 0.0
2016-Aug-23 22:24N 33°44' W 118°16'0 0.0
2016-Aug-23 21:33N 33°44' W 118°16'0 0.0
2016-Aug-23 20:33N 33°44' W 118°16'0 0.0
2016-Aug-23 18:29N 33°44' W 118°16'0 0.0
2016-Aug-23 17:32N 33°44' W 118°16'0 0.0
2016-Aug-23 16:33N 33°44' W 118°16'0 0.0
2016-Aug-23 15:32N 33°44' W 118°16'0 0.0
2016-Aug-23 00:22N 33°44' W 118°16'0 0.0
2016-Aug-22 23:33N 33°44' W 118°16'0 0.0
2016-Aug-22 22:32N 33°44' W 118°16'0 0.0
2016-Aug-22 21:33N 33°44' W 118°16'  
2016-Aug-20 14:33N 33°44' W 118°16'0 0.0
2016-Aug-20 02:25N 33°44' W 118°16'2 2.5
2016-Aug-20 01:33N 33°43' W 118°14'  
2016-Aug-17 04:30N 33°44' W 118°16'5 4.8
2016-Aug-17 03:32N 33°44' W 118°10'0 0.0
2016-Aug-17 02:33N 33°44' W 118°10'5 4.5
2016-Aug-17 01:32N 33°43' W 118°15'1 0.6
2016-Aug-16 23:20N 33°44' W 118°16'0 0.0
2016-Aug-16 22:33N 33°44' W 118°16'0 0.0
2016-Aug-16 21:33N 33°44' W 118°16'0 0.0
2016-Aug-16 20:33N 33°44' W 118°16'0 0.0
2016-Aug-16 19:33N 33°44' W 118°16'0 0.0
2016-Aug-15 20:28N 33°44' W 118°16'  
Track history (hours):
 
Tides and Currents Weather Stations Pressure Air Temp Water Temp Dewpoint Dewpoint Depression Visibility Wind Speed Wind Dir Waves Ship Positions

Elsa

Owner: GP RESOURCES INC., TERMINAL ISLAND, CA. More information available from US FCC via Universal Licensing System and Coast Guard Vessel Documentation Center.

Last reported at 2016-Aug-24 23:33 UTC. Time now 2016-Aug-26 08:32 UTC.
Position N 33°44' W 118°16'.

Length 18 m.

Type: Tug. MMSI: 366949020.

Date/timePositionNaut miles runAvg speedWind from/ knotsBaromVisibWave heightAir tempDewpointWater temp
2016-Aug-24 23:33N 33°44' W 118°16'0 0.0
2016-Aug-23 22:24N 33°44' W 118°16'0 0.0
2016-Aug-23 21:33N 33°44' W 118°16'0 0.0
2016-Aug-23 20:33N 33°44' W 118°16'0 0.0
2016-Aug-23 18:29N 33°44' W 118°16'0 0.0
2016-Aug-23 17:32N 33°44' W 118°16'0 0.0
2016-Aug-23 16:33N 33°44' W 118°16'0 0.0
2016-Aug-23 15:32N 33°44' W 118°16'0 0.0
2016-Aug-23 00:22N 33°44' W 118°16'0 0.0
2016-Aug-22 23:33N 33°44' W 118°16'0 0.0
2016-Aug-22 22:32N 33°44' W 118°16'0 0.0
2016-Aug-22 21:33N 33°44' W 118°16'  
2016-Aug-20 14:33N 33°44' W 118°16'0 0.0
2016-Aug-20 02:25N 33°44' W 118°16'2 2.5
2016-Aug-20 01:33N 33°43' W 118°14'  
2016-Aug-17 04:30N 33°44' W 118°16'5 4.8
2016-Aug-17 03:32N 33°44' W 118°10'0 0.0
2016-Aug-17 02:33N 33°44' W 118°10'5 4.5
2016-Aug-17 01:32N 33°43' W 118°15'1 0.6
2016-Aug-16 23:20N 33°44' W 118°16'0 0.0
2016-Aug-16 22:33N 33°44' W 118°16'0 0.0
2016-Aug-16 21:33N 33°44' W 118°16'0 0.0
2016-Aug-16 20:33N 33°44' W 118°16'0 0.0
2016-Aug-16 19:33N 33°44' W 118°16'0 0.0
2016-Aug-15 20:28N 33°44' W 118°16'  

Dump ship's entire track history